Time;durP1;ratioP1;P1;durP2;ratioP2;P2;SDS_P1;SDS_P2;PMS_P1;PMS_P2;Temp;Humidity;BMP_temperature;BMP_pressure;BME280_temperature;BME280_humidity;BME280_pressure;Samples;Min_cycle;Max_cycle;Signal;HPM_P1;HPM_P2
2022/07/12 00:01:05;;;;;;;1.88;1.67;;;;;;;14.13;95.70;102240.50;4990660;28;20209;-47
2022/07/12 00:03:31;;;;;;;1.63;1.52;;;;;;;14.18;95.79;102230.44;4990458;28;20166;-51
2022/07/12 00:05:57;;;;;;;1.60;1.52;;;;;;;14.12;95.64;102230.63;4990728;28;20177;-48
2022/07/12 00:08:23;;;;;;;1.80;1.70;;;;;;;14.17;95.63;102231.38;4990535;28;20231;-48
2022/07/12 00:10:49;;;;;;;1.58;1.40;;;;;;;14.15;95.56;102224.28;4990607;28;20649;-47
2022/07/12 00:13:15;;;;;;;1.80;1.48;;;;;;;14.17;95.25;102217.91;4990351;28;20177;-48
2022/07/12 00:15:41;;;;;;;1.55;1.35;;;;;;;14.26;95.02;102211.34;4990489;28;20181;-46
2022/07/12 00:18:08;;;;;;;2.15;1.60;;;;;;;14.24;94.84;102212.34;4990595;28;20237;-46
2022/07/12 00:20:33;;;;;;;1.70;1.60;;;;;;;14.07;94.40;102208.34;4990892;28;20178;-47
2022/07/12 00:22:59;;;;;;;1.50;1.40;;;;;;;14.04;94.70;102203.06;4990203;28;20192;-48
2022/07/12 00:25:25;;;;;;;2.08;1.70;;;;;;;13.82;94.72;102205.50;4990657;28;20190;-48
2022/07/12 00:27:52;;;;;;;1.58;1.48;;;;;;;13.86;95.06;102196.38;4990357;28;20201;-49
2022/07/12 00:30:17;;;;;;;3.13;1.60;;;;;;;13.82;95.28;102194.75;4990673;28;20184;-47
2022/07/12 00:32:43;;;;;;;1.75;1.65;;;;;;;13.85;95.29;102196.44;4990728;28;20165;-48
2022/07/12 00:35:09;;;;;;;1.83;1.70;;;;;;;13.60;95.66;102198.06;4972890;28;20549;-50
2022/07/12 00:37:35;;;;;;;1.80;1.70;;;;;;;13.65;96.30;102184.44;4973002;28;20197;-48
2022/07/12 00:40:01;;;;;;;2.65;1.65;;;;;;;13.54;96.61;102191.97;4973102;28;20609;-50
2022/07/12 00:42:27;;;;;;;2.45;1.50;;;;;;;13.55;97.03;102191.03;4972943;28;20695;-46
2022/07/12 00:44:52;;;;;;;2.25;1.90;;;;;;;13.48;97.42;102190.31;4990371;28;20170;-47
2022/07/12 00:47:40;;;;;;;1.90;1.80;;;;;;;13.59;97.87;102196.28;4971611;28;20197;-48
2022/07/12 00:50:15;;;;;;;2.20;2.00;;;;;;;13.57;98.17;102198.13;4990573;28;20176;-49
2022/07/12 00:52:42;;;;;;;4.40;2.20;;;;;;;13.48;98.63;102182.25;4990113;28;20236;-46
2022/07/12 00:55:09;;;;;;;2.40;2.15;;;;;;;13.26;99.63;102181.94;4990292;28;20188;-46
2022/07/12 00:57:36;;;;;;;2.20;2.00;;;;;;;13.24;100.00;102180.22;4990402;28;20221;-48
2022/07/12 01:00:04;;;;;;;2.65;2.22;;;;;;;13.29;100.00;102181.88;4991503;28;20178;-47
2022/07/12 01:02:31;;;;;;;3.35;3.05;;;;;;;13.18;100.00;102174.09;4993614;28;20186;-48
2022/07/12 01:04:57;;;;;;;4.28;2.90;;;;;;;13.22;100.00;102177.56;4993901;28;20198;-47
2022/07/12 01:07:24;;;;;;;3.78;2.10;;;;;;;13.30;100.00;102177.41;4993501;28;20173;-47
2022/07/12 01:09:51;;;;;;;2.85;2.13;;;;;;;13.27;100.00;102175.66;4993692;28;20253;-47
2022/07/12 01:12:17;;;;;;;4.65;2.47;;;;;;;13.20;100.00;102179.41;4976013;28;20244;-48
2022/07/12 01:14:43;;;;;;;3.53;2.38;;;;;;;13.20;100.00;102188.34;4993511;28;20170;-47
2022/07/12 01:17:08;;;;;;;3.00;2.80;;;;;;;13.15;100.00;102190.31;4994140;28;20165;-47
2022/07/12 01:19:37;;;;;;;2.85;2.65;;;;;;;13.25;100.00;102181.97;4993378;28;20201;-45
2022/07/12 01:22:08;;;;;;;2.53;2.30;;;;;;;13.15;100.00;102195.69;4993658;28;20179;-47
2022/07/12 01:24:34;;;;;;;2.45;2.25;;;;;;;13.15;100.00;102193.00;4992924;28;20276;-46
2022/07/12 01:27:00;;;;;;;3.20;2.90;;;;;;;13.16;100.00;102186.69;4993459;28;20182;-46
2022/07/12 01:29:26;;;;;;;5.75;3.30;;;;;;;13.06;100.00;102178.91;4976087;28;20300;-48
2022/07/12 01:31:51;;;;;;;3.72;3.33;;;;;;;13.03;100.00;102187.06;4993299;28;20178;-45
2022/07/12 01:34:18;;;;;;;4.13;3.47;;;;;;;13.02;100.00;102183.47;4993081;28;20170;-46
2022/07/12 01:36:43;;;;;;;4.93;3.38;;;;;;;12.97;100.00;102180.03;4993275;28;20189;-47
2022/07/12 01:39:09;;;;;;;3.15;2.90;;;;;;;13.12;100.00;102179.63;4992893;28;20597;-46
2022/07/12 01:41:35;;;;;;;3.22;2.90;;;;;;;13.14;100.00;102185.84;4993620;28;20212;-46
2022/07/12 01:44:11;;;;;;;2.78;2.58;;;;;;;13.09;100.00;102185.06;4992936;28;20234;-47
2022/07/12 01:46:37;;;;;;;3.30;3.00;;;;;;;12.94;100.00;102177.41;4984224;28;20248;-48
2022/07/12 01:49:03;;;;;;;3.38;3.15;;;;;;;12.93;100.00;102178.34;4992732;28;20205;-47
2022/07/12 01:51:31;;;;;;;5.38;2.90;;;;;;;12.73;100.00;102190.50;4992814;28;20205;-46
2022/07/12 01:53:57;;;;;;;6.97;3.63;;;;;;;12.77;100.00;102189.50;4989851;28;20196;-47
2022/07/12 01:56:22;;;;;;;3.50;3.25;;;;;;;12.73;100.00;102178.88;4986958;28;20189;-46
2022/07/12 01:58:48;;;;;;;6.00;3.53;;;;;;;12.63;100.00;102180.91;4975112;28;20220;-48
2022/07/12 02:01:14;;;;;;;3.45;3.15;;;;;;;12.71;100.00;102188.78;4992548;28;20196;-47
2022/07/12 02:03:40;;;;;;;4.13;3.28;;;;;;;12.78;100.00;102196.66;4992187;28;20184;-45
2022/07/12 02:06:05;;;;;;;3.22;2.90;;;;;;;12.80;100.00;102193.94;4975147;28;20178;-45
2022/07/12 02:08:31;;;;;;;4.15;3.22;;;;;;;12.73;100.00;102195.00;4992486;28;20691;-49
2022/07/12 02:10:56;;;;;;;3.00;2.80;;;;;;;12.79;100.00;102205.63;4990901;28;20601;-49
2022/07/12 02:13:22;;;;;;;4.18;3.03;;;;;;;12.63;100.00;102201.53;4992283;28;20605;-46
2022/07/12 02:15:47;;;;;;;3.95;3.35;;;;;;;12.69;100.00;102207.63;4992434;28;20169;-47
2022/07/12 02:18:13;;;;;;;5.25;3.33;;;;;;;12.53;100.00;102200.91;4992267;28;20220;-47
2022/07/12 02:20:38;;;;;;;4.90;3.45;;;;;;;12.54;100.00;102198.16;4992111;28;20838;-47
2022/07/12 02:23:03;;;;;;;4.60;3.58;;;;;;;12.58;100.00;102212.41;4991960;28;20196;-48
2022/07/12 02:25:29;;;;;;;3.75;3.42;;;;;;;12.60;100.00;102202.50;4992270;28;20567;-48
2022/07/12 02:27:54;;;;;;;5.68;4.35;;;;;;;12.60;100.00;102194.44;4992102;28;20229;-45
2022/07/12 02:30:20;;;;;;;4.32;3.92;;;;;;;12.54;100.00;102210.72;4992495;28;20216;-47
2022/07/12 02:32:45;;;;;;;5.65;4.07;;;;;;;12.52;100.00;102213.44;4992504;28;20621;-48
2022/07/12 02:35:11;;;;;;;5.63;4.32;;;;;;;12.44;100.00;102206.47;4991834;28;20244;-49
2022/07/12 02:37:36;;;;;;;5.20;4.45;;;;;;;12.50;100.00;102215.25;4992081;28;20202;-50
2022/07/12 02:42:48;;;;;;;5.82;5.03;;;;;;;12.51;100.00;102227.81;4992318;28;20548;-46
2022/07/12 02:45:14;;;;;;;6.45;5.22;;;;;;;12.36;100.00;102222.78;4991649;28;20174;-48
2022/07/12 02:47:40;;;;;;;5.72;5.15;;;;;;;12.42;100.00;102230.72;4991443;28;20536;-46
2022/07/12 02:50:07;;;;;;;6.00;4.85;;;;;;;12.54;100.00;102240.28;4991594;28;20170;-46
2022/07/12 02:52:33;;;;;;;4.93;4.43;;;;;;;12.54;100.00;102241.16;4991155;28;20197;-48
2022/07/12 02:54:59;;;;;;;6.07;4.05;;;;;;;12.48;100.00;102245.81;4991327;28;20189;-46
2022/07/12 02:57:24;;;;;;;7.88;5.35;;;;;;;12.40;100.00;102242.41;4990725;28;20164;-46
2022/07/12 02:59:50;;;;;;;7.65;5.55;;;;;;;12.38;100.00;102250.53;4990410;28;20212;-46
2022/07/12 03:02:15;;;;;;;6.70;5.30;;;;;;;12.45;100.00;102249.44;4991424;28;20260;-48
2022/07/12 03:04:41;;;;;;;8.43;5.43;;;;;;;12.57;100.00;102245.56;4990970;28;20634;-46
2022/07/12 03:07:06;;;;;;;8.43;6.28;;;;;;;12.60;100.00;102253.59;4991329;28;20174;-48
2022/07/12 03:09:32;;;;;;;11.23;5.97;;;;;;;12.77;100.00;102254.06;4986498;28;20260;-47
2022/07/12 03:11:57;;;;;;;10.82;7.32;;;;;;;12.73;100.00;102265.81;4995919;28;20191;-48
2022/07/12 03:14:23;;;;;;;7.50;6.75;;;;;;;12.82;100.00;102266.53;4991005;28;20193;-48
2022/07/12 03:16:49;;;;;;;7.00;6.30;;;;;;;12.82;100.00;102271.91;4990933;28;20189;-46
2022/07/12 03:19:15;;;;;;;11.85;7.20;;;;;;;12.75;100.00;102263.97;4973542;28;20213;-47
2022/07/12 03:21:40;;;;;;;8.93;6.38;;;;;;;12.77;100.00;102278.28;4991198;28;20219;-48
2022/07/12 03:24:05;;;;;;;7.43;6.72;;;;;;;12.77;100.00;102280.97;4989657;28;20232;-49
2022/07/12 03:26:31;;;;;;;7.25;6.63;;;;;;;12.84;100.00;102270.06;5003114;28;20235;-49
2022/07/12 03:28:56;;;;;;;8.05;6.63;;;;;;;12.81;100.00;102270.13;4989534;28;20201;-48
2022/07/12 03:31:22;;;;;;;7.57;6.28;;;;;;;12.78;100.00;102281.84;4990927;28;20166;-49
2022/07/12 03:33:47;;;;;;;8.88;6.70;;;;;;;12.81;100.00;102271.00;4990767;28;20332;-47
2022/07/12 03:36:13;;;;;;;7.10;6.40;;;;;;;12.87;100.00;102280.72;4990424;28;20169;-45
2022/07/12 03:38:39;;;;;;;7.47;6.78;;;;;;;12.76;100.00;102270.22;4990238;28;20303;-45
2022/07/12 03:41:05;;;;;;;9.40;6.70;;;;;;;12.81;100.00;102265.59;4990559;28;20166;-45
2022/07/12 03:43:30;;;;;;;7.22;6.50;;;;;;;12.87;100.00;102269.97;4973197;28;20659;-46
2022/07/12 03:45:56;;;;;;;7.05;6.25;;;;;;;12.90;100.00;102269.88;4968425;28;20189;-43
2022/07/12 03:48:21;;;;;;;8.48;7.00;;;;;;;12.80;100.00;102271.06;4990691;28;20197;-44
2022/07/12 03:50:47;;;;;;;6.80;6.10;;;;;;;12.90;100.00;102276.16;4990954;28;20176;-42
2022/07/12 03:53:13;;;;;;;8.90;7.18;;;;;;;12.85;100.00;102274.50;4987856;28;21232;-43
2022/07/12 03:55:39;;;;;;;7.72;6.97;;;;;;;12.68;100.00;102280.28;4981299;28;20297;-44
2022/07/12 03:58:04;;;;;;;9.20;7.15;;;;;;;12.64;100.00;102276.78;4990520;28;20546;-42
2022/07/12 04:00:30;;;;;;;9.90;6.50;;;;;;;12.76;100.00;102272.91;4990571;28;20177;-42
2022/07/12 04:02:55;;;;;;;9.80;8.15;;;;;;;12.77;100.00;102280.09;4990660;28;20166;-43
2022/07/12 04:05:25;;;;;;;10.32;7.57;;;;;;;12.70;100.00;102276.66;4990398;28;20668;-43
2022/07/12 04:07:51;;;;;;;7.97;7.13;;;;;;;12.78;100.00;102269.25;5000030;28;20173;-43
2022/07/12 04:10:16;;;;;;;8.32;6.30;;;;;;;12.98;100.00;102276.84;4997100;28;20177;-44
2022/07/12 04:12:41;;;;;;;7.00;6.30;;;;;;;12.96;100.00;102269.72;4990512;28;20676;-42
2022/07/12 04:15:07;;;;;;;11.05;7.00;;;;;;;12.82;100.00;102266.53;4990604;28;20237;-43
2022/07/12 04:17:33;;;;;;;7.75;6.80;;;;;;;12.96;100.00;102269.72;4990182;28;20209;-42
2022/07/12 04:19:58;;;;;;;6.60;5.57;;;;;;;13.02;100.00;102276.78;4990765;28;20181;-43
2022/07/12 04:22:24;;;;;;;6.75;5.85;;;;;;;13.05;100.00;102265.94;4990641;28;20269;-44
2022/07/12 04:24:49;;;;;;;7.80;6.07;;;;;;;13.07;100.00;102272.16;4990021;28;20177;-43
2022/07/12 04:27:15;;;;;;;6.63;5.32;;;;;;;13.13;100.00;102272.00;4990651;28;20170;-43
2022/07/12 04:29:40;;;;;;;6.65;5.38;;;;;;;13.20;100.00;102274.47;4990404;28;20308;-45
2022/07/12 04:32:06;;;;;;;7.47;6.20;;;;;;;13.28;100.00;102277.03;4990062;28;20536;-43
2022/07/12 04:34:31;;;;;;;7.97;6.13;;;;;;;13.27;100.00;102261.78;4990944;28;20170;-41
2022/07/12 04:36:57;;;;;;;5.38;4.88;;;;;;;13.39;100.00;102263.28;4994199;28;20211;-43
2022/07/12 04:39:23;;;;;;;5.78;4.97;;;;;;;13.39;100.00;102268.66;4993943;28;20251;-43
2022/07/12 04:41:48;;;;;;;6.57;5.60;;;;;;;13.30;100.00;102266.22;4993794;28;20172;-41
2022/07/12 04:44:14;;;;;;;9.50;5.32;;;;;;;13.29;100.00;102273.38;4993816;28;20177;-43
2022/07/12 04:46:39;;;;;;;9.40;5.38;;;;;;;13.28;100.00;102262.66;4994224;28;20172;-43
2022/07/12 04:49:06;;;;;;;5.13;4.63;;;;;;;13.21;100.00;102275.38;4993737;28;20285;-44
2022/07/12 04:51:32;;;;;;;4.75;4.35;;;;;;;13.40;100.00;102275.78;4994210;28;20633;-41
2022/07/12 04:53:57;;;;;;;4.88;4.47;;;;;;;13.46;100.00;102272.94;4993457;28;20250;-42
2022/07/12 04:56:23;;;;;;;4.97;4.13;;;;;;;13.34;100.00;102284.06;4994247;28;20205;-43
2022/07/12 04:58:49;;;;;;;4.75;4.25;;;;;;;13.31;100.00;102289.50;4993818;28;20256;-43
2022/07/12 05:01:15;;;;;;;5.47;4.22;;;;;;;13.18;100.00;102281.75;4993570;28;20169;-42
2022/07/12 05:03:40;;;;;;;5.57;4.00;;;;;;;13.36;100.00;102285.78;4993384;28;20604;-39
2022/07/12 05:06:06;;;;;;;4.28;3.88;;;;;;;13.38;100.00;102289.31;4993290;28;20178;-43
2022/07/12 05:08:31;;;;;;;5.13;4.20;;;;;;;13.56;100.00;102287.94;4993356;28;20194;-44
2022/07/12 05:10:56;;;;;;;4.78;4.00;;;;;;;13.48;100.00;102289.94;4993677;28;20245;-41
2022/07/12 05:13:22;;;;;;;4.28;3.53;;;;;;;13.64;100.00;102297.59;4993090;28;20186;-43
2022/07/12 05:15:47;;;;;;;4.82;4.15;;;;;;;13.68;100.00;102308.25;4993549;28;20166;-42
2022/07/12 05:18:13;;;;;;;5.05;4.65;;;;;;;13.77;100.00;102304.41;4993042;28;20639;-41
2022/07/12 05:20:38;;;;;;;4.80;4.30;;;;;;;13.57;100.00;102304.97;4993627;28;20556;-43
2022/07/12 05:23:04;;;;;;;4.40;4.00;;;;;;;13.55;100.00;102302.31;4976125;28;20249;-43
2022/07/12 05:25:29;;;;;;;6.95;4.80;;;;;;;13.59;100.00;102300.44;4993046;28;20188;-42
2022/07/12 05:27:55;;;;;;;5.10;4.60;;;;;;;13.52;100.00;102302.41;4992854;28;20261;-44
2022/07/12 05:30:21;;;;;;;7.57;4.22;;;;;;;13.66;100.00;102301.13;4993390;28;20176;-43
2022/07/12 05:32:46;;;;;;;4.10;3.70;;;;;;;13.64;100.00;102311.94;5002284;28;20200;-44
2022/07/12 05:35:12;;;;;;;4.50;4.10;;;;;;;13.78;100.00;102303.50;5012799;28;20173;-42
2022/07/12 05:37:37;;;;;;;5.22;4.53;;;;;;;13.68;100.00;102308.25;5012057;28;20204;-42
2022/07/12 05:40:03;;;;;;;4.32;3.85;;;;;;;13.86;100.00;102301.44;5012857;28;20252;-43
2022/07/12 05:42:29;;;;;;;4.80;3.90;;;;;;;14.01;100.00;102301.03;5010715;28;20308;-44
2022/07/12 05:44:54;;;;;;;3.85;3.55;;;;;;;14.11;100.00;102287.28;4992857;28;20200;-43
2022/07/12 05:47:20;;;;;;;3.83;3.17;;;;;;;14.18;100.00;102288.88;4991503;28;20172;-43
2022/07/12 05:49:45;;;;;;;4.68;4.28;;;;;;;14.17;100.00;102293.38;4992879;28;20955;-42
2022/07/12 05:54:55;;;;;;;3.38;3.08;;;;;;;14.38;100.00;102286.44;4992733;28;20180;-41
2022/07/12 05:57:21;;;;;;;3.80;2.95;;;;;;;14.60;100.00;102285.81;4992843;28;20192;-44
2022/07/12 05:59:46;;;;;;;3.67;3.40;;;;;;;14.50;100.00;102289.72;4991737;28;20212;-40
2022/07/12 06:02:12;;;;;;;3.50;3.30;;;;;;;14.49;100.00;102290.63;4974720;28;20178;-43
2022/07/12 06:04:37;;;;;;;3.40;3.20;;;;;;;14.61;100.00;102290.28;4992415;28;20257;-42
2022/07/12 06:07:03;;;;;;;3.83;3.47;;;;;;;14.51;100.00;102291.47;4992243;28;20277;-40
2022/07/12 06:09:29;;;;;;;6.95;4.00;;;;;;;14.49;100.00;102290.63;4992491;28;20587;-41
2022/07/12 06:11:55;;;;;;;3.70;3.40;;;;;;;14.39;100.00;102280.13;4992286;28;20184;-43
2022/07/12 06:14:20;;;;;;;3.92;3.63;;;;;;;14.59;100.00;102276.84;4992387;28;20166;-43
2022/07/12 06:16:46;;;;;;;3.58;3.30;;;;;;;14.53;100.00;102281.50;4992334;28;20543;-41
2022/07/12 06:19:11;;;;;;;3.90;3.55;;;;;;;14.42;100.00;102279.16;4992261;28;20220;-41
2022/07/12 06:21:37;;;;;;;3.60;3.30;;;;;;;14.39;100.00;102279.25;4992288;28;20170;-44
2022/07/12 06:24:02;;;;;;;4.18;3.60;;;;;;;14.55;100.00;102293.16;4992098;28;20189;-42
2022/07/12 06:26:28;;;;;;;3.78;3.47;;;;;;;14.65;100.00;102299.13;4991976;28;20170;-44
2022/07/12 06:28:53;;;;;;;3.78;3.47;;;;;;;14.66;100.00;102290.13;4991739;28;20193;-43
2022/07/12 06:31:19;;;;;;;5.55;3.60;;;;;;;14.73;100.00;102294.38;4992524;28;20190;-42
2022/07/12 06:33:44;;;;;;;4.20;3.10;;;;;;;14.71;100.00;102288.16;4991581;28;20264;-42
2022/07/12 06:36:10;;;;;;;4.10;3.70;;;;;;;14.68;100.00;102293.66;4991830;28;20178;-42
2022/07/12 06:38:35;;;;;;;3.97;3.58;;;;;;;14.67;100.00;102287.41;4991782;28;20571;-44
2022/07/12 06:41:01;;;;;;;3.47;3.28;;;;;;;14.80;100.00;102291.47;4991949;28;20259;-43
2022/07/12 06:43:26;;;;;;;3.92;3.25;;;;;;;14.75;100.00;102300.63;4990873;28;20189;-42
2022/07/12 06:45:52;;;;;;;3.75;3.38;;;;;;;14.72;100.00;102300.75;4991423;28;20209;-43
2022/07/12 06:48:18;;;;;;;2.78;2.58;;;;;;;14.87;100.00;102300.25;4991814;28;20544;-43
2022/07/12 06:50:44;;;;;;;3.42;3.22;;;;;;;14.86;100.00;102305.69;4992062;28;20248;-42
2022/07/12 06:53:13;;;;;;;3.70;3.40;;;;;;;14.87;100.00;102310.13;4991393;28;20204;-44
2022/07/12 06:55:38;;;;;;;3.20;2.90;;;;;;;14.97;100.00;102309.78;4974462;28;20197;-43
2022/07/12 06:58:04;;;;;;;3.88;3.25;;;;;;;14.88;100.00;102309.22;4990830;28;20216;-43
2022/07/12 07:00:30;;;;;;;3.30;3.00;;;;;;;14.89;100.00;102300.16;4991763;28;20295;-43
2022/07/12 07:02:56;;;;;;;3.10;2.80;;;;;;;15.10;100.00;102295.88;4974085;28;20174;-41
2022/07/12 07:05:21;;;;;;;3.42;3.03;;;;;;;15.22;100.00;102295.47;4991404;28;20637;-40
2022/07/12 07:07:47;;;;;;;4.30;2.88;;;;;;;15.21;100.00;102293.69;4991469;28;20161;-43
2022/07/12 07:10:12;;;;;;;5.97;3.35;;;;;;;15.28;100.00;102300.63;4991166;28;20626;-41
2022/07/12 07:12:38;;;;;;;3.55;3.25;;;;;;;15.18;100.00;102299.22;4991207;28;20169;-43
2022/07/12 07:15:04;;;;;;;3.15;2.92;;;;;;;15.24;100.00;102294.47;4991316;28;20169;-42
2022/07/12 07:17:29;;;;;;;4.53;3.08;;;;;;;15.43;100.00;102291.13;4991030;28;20679;-44
2022/07/12 07:19:55;;;;;;;3.47;3.17;;;;;;;15.39;100.00;102289.47;4991372;28;20200;-43
2022/07/12 07:22:20;;;;;;;3.28;3.00;;;;;;;15.35;100.00;102283.31;4991647;28;20688;-43
2022/07/12 07:24:46;;;;;;;4.15;3.40;;;;;;;15.27;100.00;102282.69;4973504;28;20272;-41
2022/07/12 07:27:12;;;;;;;3.20;3.00;;;;;;;15.29;100.00;102272.72;4991370;28;20184;-43
2022/07/12 07:32:22;;;;;;;3.20;2.90;;;;;;;15.57;100.00;102283.44;4991312;28;20253;-44
2022/07/12 07:34:47;;;;;;;3.72;3.25;;;;;;;15.44;100.00;102282.97;4991532;28;20299;-41
2022/07/12 07:37:13;;;;;;;4.05;3.63;;;;;;;15.41;100.00;102293.91;4973283;28;20309;-43
2022/07/12 07:39:39;;;;;;;4.28;3.50;;;;;;;15.31;100.00;102303.25;4991163;28;20671;-42
2022/07/12 07:42:05;;;;;;;3.90;3.60;;;;;;;15.53;100.00;102291.72;4991399;28;20166;-43
2022/07/12 07:44:31;;;;;;;5.35;3.72;;;;;;;15.70;100.00;102300.09;4991021;28;20174;-41
2022/07/12 07:46:56;;;;;;;5.18;3.92;;;;;;;15.69;100.00;102290.19;4990402;28;20178;-42
2022/07/12 07:49:22;;;;;;;4.07;3.70;;;;;;;15.64;100.00;102293.06;4990689;28;20676;-43
2022/07/12 07:51:47;;;;;;;4.18;3.78;;;;;;;15.54;100.00;102286.22;4991082;28;20169;-42
2022/07/12 07:54:13;;;;;;;3.50;3.20;;;;;;;15.63;100.00;102288.63;4972839;28;20216;-42
2022/07/12 07:56:38;;;;;;;3.63;2.97;;;;;;;15.79;100.00;102294.38;4990816;28;20205;-42
2022/07/12 07:59:04;;;;;;;3.85;3.42;;;;;;;15.78;100.00;102295.28;4990657;28;20209;-42
2022/07/12 08:01:52;;;;;;;3.92;3.47;;;;;;;15.77;100.00;102293.56;4990544;28;20166;-42
2022/07/12 08:04:18;;;;;;;3.65;3.05;;;;;;;15.96;100.00;102300.97;4990482;28;20189;-42
2022/07/12 08:06:45;;;;;;;5.43;3.60;;;;;;;15.72;100.00;102302.75;4990675;28;20181;-42
2022/07/12 08:09:11;;;;;;;3.65;3.28;;;;;;;15.81;100.00;102307.84;4990885;28;20225;-44
2022/07/12 08:11:37;;;;;;;3.70;3.40;;;;;;;15.82;100.00;102304.19;4977498;28;20603;-43
2022/07/12 08:14:04;;;;;;;3.53;3.22;;;;;;;15.96;100.00;102309.97;4994599;28;20173;-41
2022/07/12 08:16:30;;;;;;;4.43;3.58;;;;;;;15.89;100.00;102312.94;4994115;28;20523;-42
2022/07/12 08:18:56;;;;;;;3.90;3.55;;;;;;;15.91;100.00;102314.66;4994560;28;20744;-42
2022/07/12 08:21:22;;;;;;;3.10;2.85;;;;;;;15.87;100.00;102307.59;4994586;28;20165;-43
2022/07/12 08:23:47;;;;;;;3.28;3.08;;;;;;;15.97;100.00;102318.97;4994062;28;20185;-41
2022/07/12 08:26:13;;;;;;;3.65;2.97;;;;;;;16.20;100.00;102315.38;4994356;28;20243;-43
2022/07/12 08:28:38;;;;;;;4.25;2.88;;;;;;;16.13;100.00;102313.84;4994252;28;20755;-41
2022/07/12 08:31:04;;;;;;;2.95;2.65;;;;;;;16.20;100.00;102315.38;4994810;28;20173;-41
2022/07/12 08:33:29;;;;;;;2.90;2.70;;;;;;;16.36;100.00;102321.09;4994243;28;20517;-43
2022/07/12 08:35:55;;;;;;;2.95;2.60;;;;;;;16.44;99.72;102324.38;4994529;28;20185;-42
2022/07/12 08:38:20;;;;;;;3.42;3.13;;;;;;;16.40;99.79;102317.34;4994014;28;20348;-44
2022/07/12 08:40:46;;;;;;;4.10;3.53;;;;;;;16.42;100.00;102316.34;4994272;28;20199;-42
2022/07/12 08:43:12;;;;;;;3.28;2.90;;;;;;;16.40;100.00;102322.75;4993822;28;20471;-42
2022/07/12 08:45:40;;;;;;;4.05;3.45;;;;;;;16.32;100.00;102319.47;4994018;28;20189;-42
2022/07/12 08:48:06;;;;;;;3.95;3.08;;;;;;;16.38;100.00;102308.41;4993976;28;20197;-41
2022/07/12 08:50:33;;;;;;;4.43;3.53;;;;;;;16.33;100.00;102316.66;4994045;28;20181;-42
2022/07/12 08:52:58;;;;;;;4.25;2.85;;;;;;;16.39;100.00;102319.13;4993324;28;20186;-43
2022/07/12 08:55:25;;;;;;;5.38;3.22;;;;;;;16.55;100.00;102315.84;4976408;28;20173;-42
2022/07/12 08:57:52;;;;;;;2.90;2.70;;;;;;;16.71;100.00;102314.28;4993749;28;20209;-43
2022/07/12 09:00:19;;;;;;;4.13;2.67;;;;;;;16.80;99.01;102319.38;4993825;28;20653;-42
2022/07/12 09:02:58;;;;;;;2.75;2.55;;;;;;;17.04;97.99;102311.19;4993814;28;20185;-41
2022/07/12 09:05:34;;;;;;;3.08;2.30;;;;;;;17.44;97.24;102307.66;4993207;28;20248;-43
2022/07/12 09:08:04;;;;;;;2.22;2.10;;;;;;;17.68;96.22;102296.69;4993576;28;20232;-42
2022/07/12 09:10:30;;;;;;;2.22;2.00;;;;;;;17.86;94.87;102308.56;4993695;28;20177;-42
2022/07/12 09:12:56;;;;;;;1.77;1.67;;;;;;;18.00;93.50;102297.97;4993204;28;20689;-43
2022/07/12 09:15:24;;;;;;;1.58;1.48;;;;;;;18.12;92.68;102297.38;4993450;28;20165;-42
2022/07/12 09:18:13;;;;;;;3.40;1.38;;;;;;;18.12;92.56;102302.81;4992837;28;20643;-43
2022/07/12 09:20:41;;;;;;;2.33;1.38;;;;;;;17.85;92.04;102304.09;4993337;28;20193;-42
2022/07/12 09:23:10;;;;;;;1.05;1.05;;;;;;;18.02;93.48;102303.31;4992861;28;20543;-42
2022/07/12 09:25:43;;;;;;;1.70;1.50;;;;;;;18.01;93.02;102301.56;4993323;28;20193;-43
2022/07/12 09:28:09;;;;;;;1.20;1.10;;;;;;;18.14;92.17;102296.44;4993434;28;20284;-42
2022/07/12 09:30:38;;;;;;;1.98;1.02;;;;;;;18.07;92.64;102295.84;4992205;28;20741;-42
2022/07/12 09:36:07;;;;;;;1.00;1.00;;;;;;;18.31;91.28;102302.84;4992860;28;20228;-42
2022/07/12 09:38:32;;;;;;;1.40;1.30;;;;;;;18.62;90.88;102292.34;4975560;28;20689;-41
2022/07/12 09:40:59;;;;;;;2.15;1.13;;;;;;;19.07;88.96;102289.22;4993211;28;20200;-42
2022/07/12 09:43:26;;;;;;;1.55;1.25;;;;;;;18.82;87.67;102292.25;4975249;28;20162;-42
2022/07/12 09:45:51;;;;;;;1.17;1.17;;;;;;;19.27;86.14;102296.34;4993191;28;20661;-43
2022/07/12 09:48:19;;;;;;;1.13;1.08;;;;;;;19.76;83.72;102285.63;4992262;28;20204;-43
2022/07/12 09:50:48;;;;;;;1.23;0.90;;;;;;;20.20;83.09;102283.28;4993181;28;20173;-44
2022/07/12 09:53:22;;;;;;;1.05;1.05;;;;;;;20.09;82.33;102287.47;4975061;28;20195;-42
2022/07/12 09:55:51;;;;;;;1.63;1.00;;;;;;;19.70;82.65;102287.78;4993257;28;20673;-42
2022/07/12 09:58:23;;;;;;;1.00;0.90;;;;;;;20.16;82.11;102283.47;4992918;28;20304;-42
2022/07/12 10:00:51;;;;;;;1.30;1.20;;;;;;;20.32;81.07;102271.72;4992667;28;20323;-42
2022/07/12 10:03:24;;;;;;;1.30;1.20;;;;;;;20.72;81.38;102272.19;4992502;28;20260;-41
2022/07/12 10:05:51;;;;;;;1.25;1.15;;;;;;;20.87;79.19;102264.97;4993122;28;20182;-43
2022/07/12 10:08:19;;;;;;;2.25;1.10;;;;;;;20.42;80.02;102270.22;4992037;28;20719;-41
2022/07/12 10:10:45;;;;;;;1.00;0.90;;;;;;;20.93;81.64;102281.81;4992356;28;20182;-41
2022/07/12 10:13:13;;;;;;;0.75;0.75;;;;;;;21.36;78.22;102272.91;4992080;28;20309;-43
2022/07/12 10:15:43;;;;;;;0.82;0.80;;;;;;;21.68;76.97;102264.66;4975067;28;20252;-42
2022/07/12 10:18:15;;;;;;;0.80;0.80;;;;;;;21.34;75.52;102263.94;4992275;28;20217;-43
2022/07/12 10:20:44;;;;;;;0.68;0.68;;;;;;;21.68;74.63;102261.91;4992106;28;20530;-43
2022/07/12 10:23:15;;;;;;;0.60;0.60;;;;;;;22.04;74.99;102253.25;4992310;28;20169;-42
2022/07/12 10:25:41;;;;;;;0.93;0.70;;;;;;;21.68;73.51;102257.34;4992380;28;20535;-44
2022/07/12 10:28:07;;;;;;;0.68;0.68;;;;;;;21.54;74.89;102254.59;4974490;28;20197;-43
2022/07/12 10:30:43;;;;;;;0.70;0.70;;;;;;;22.10;74.61;102255.56;4992500;28;20157;-43
2022/07/12 10:33:20;;;;;;;2.67;0.80;;;;;;;22.51;73.16;102252.03;4991611;28;20255;-41
2022/07/12 10:36:12;;;;;;;1.00;0.80;;;;;;;22.33;72.86;102256.88;4992499;28;20410;-42
2022/07/12 10:38:37;;;;;;;0.57;0.57;;;;;;;22.00;74.19;102258.03;4987885;28;20243;-42
2022/07/12 10:41:21;;;;;;;2.00;0.80;;;;;;;21.76;74.16;102260.47;4992274;28;20177;-42
2022/07/12 10:44:06;;;;;;;1.33;0.80;;;;;;;21.66;75.18;102248.38;4991792;28;20169;-46
2022/07/12 10:46:37;;;;;;;0.65;0.65;;;;;;;21.57;73.30;102255.28;4991730;28;20301;-44
2022/07/12 10:49:29;;;;;;;0.50;0.50;;;;;;;21.93;73.26;102259.41;4992040;28;20212;-45
2022/07/12 10:52:09;;;;;;;1.83;0.60;;;;;;;22.16;72.34;102249.72;4991343;28;20184;-46
2022/07/12 10:54:35;;;;;;;1.40;0.60;;;;;;;22.17;71.86;102246.03;4991161;28;20169;-45
2022/07/12 10:57:01;;;;;;;0.70;0.70;;;;;;;22.74;70.12;102244.16;4991811;28;20177;-46
2022/07/12 10:59:27;;;;;;;0.70;0.70;;;;;;;22.74;70.64;102244.16;4991356;28;20221;-45
2022/07/12 11:01:55;;;;;;;0.65;0.65;;;;;;;22.84;69.86;102253.50;4992208;28;20177;-45
2022/07/12 11:04:21;;;;;;;1.42;0.63;;;;;;;21.97;70.69;102243.69;4990911;28;20189;-47
2022/07/12 11:06:48;;;;;;;0.60;0.60;;;;;;;22.02;72.17;102250.63;4991431;28;20292;-46
2022/07/12 11:09:17;;;;;;;0.65;0.60;;;;;;;22.11;70.89;102249.16;4991593;28;20255;-44
2022/07/12 11:11:44;;;;;;;0.60;0.60;;;;;;;21.75;71.35;102234.13;4991230;28;20200;-45
2022/07/12 11:14:12;;;;;;;0.50;0.50;;;;;;;22.26;70.08;102235.50;4991060;28;20176;-47
2022/07/12 11:16:45;;;;;;;0.60;0.60;;;;;;;22.62;68.99;102230.34;4991319;28;20185;-44
2022/07/12 11:19:11;;;;;;;0.50;0.50;;;;;;;22.37;70.47;102239.31;4991150;28;20228;-45
2022/07/12 11:21:36;;;;;;;0.57;0.57;;;;;;;22.61;70.33;102223.13;4991588;28;20185;-45
2022/07/12 11:24:02;;;;;;;0.80;0.80;;;;;;;22.80;71.18;102224.63;4990184;28;20185;-45
2022/07/12 11:26:28;;;;;;;1.27;0.60;;;;;;;22.88;70.47;102224.97;4991607;28;20573;-48
2022/07/12 11:28:57;;;;;;;0.57;0.57;;;;;;;22.60;69.35;102217.78;4991229;28;20197;-46